sensor_id;sensor_type;location;lat;lon;timestamp;pressure;altitude;pressure_sealevel;temperature;humidity
37848;BME280;23688;33.130;-117.188;2023-12-14T00:02:21;99481.09;;;15.05;100.00
37848;BME280;23688;33.130;-117.188;2023-12-14T00:04:47;99493.94;;;14.97;100.00
37848;BME280;23688;33.130;-117.188;2023-12-14T00:07:14;99498.34;;;14.99;100.00
37848;BME280;23688;33.130;-117.188;2023-12-14T00:09:44;99497.25;;;14.90;100.00
37848;BME280;23688;33.130;-117.188;2023-12-14T00:12:10;99503.94;;;14.77;100.00
37848;BME280;23688;33.130;-117.188;2023-12-14T00:14:36;99504.81;;;14.77;100.00
37848;BME280;23688;33.130;-117.188;2023-12-14T00:17:03;99506.53;;;14.75;100.00
37848;BME280;23688;33.130;-117.188;2023-12-14T00:19:29;99513.66;;;14.83;100.00
37848;BME280;23688;33.130;-117.188;2023-12-14T00:21:56;99520.34;;;14.71;100.00
37848;BME280;23688;33.130;-117.188;2023-12-14T00:24:22;99517.69;;;14.70;100.00
37848;BME280;23688;33.130;-117.188;2023-12-14T00:26:49;99520.09;;;14.61;100.00
37848;BME280;23688;33.130;-117.188;2023-12-14T00:29:15;99533.97;;;14.60;100.00
37848;BME280;23688;33.130;-117.188;2023-12-14T00:31:41;99547.78;;;14.54;100.00
37848;BME280;23688;33.130;-117.188;2023-12-14T00:34:08;99540.19;;;14.31;100.00
37848;BME280;23688;33.130;-117.188;2023-12-14T00:36:34;99546.09;;;14.24;100.00
37848;BME280;23688;33.130;-117.188;2023-12-14T00:39:01;99545.91;;;14.18;100.00
37848;BME280;23688;33.130;-117.188;2023-12-14T00:41:27;99557.94;;;14.13;100.00
37848;BME280;23688;33.130;-117.188;2023-12-14T00:43:54;99552.44;;;14.02;100.00
37848;BME280;23688;33.130;-117.188;2023-12-14T00:46:21;99555.88;;;14.01;100.00
37848;BME280;23688;33.130;-117.188;2023-12-14T00:48:47;99550.72;;;14.04;100.00
37848;BME280;23688;33.130;-117.188;2023-12-14T00:51:14;99562.97;;;14.05;100.00
37848;BME280;23688;33.130;-117.188;2023-12-14T00:53:40;99557.94;;;14.13;100.00
37848;BME280;23688;33.130;-117.188;2023-12-14T00:56:08;99564.38;;;14.26;100.00
37848;BME280;23688;33.130;-117.188;2023-12-14T00:58:35;99569.06;;;14.38;100.00
37848;BME280;23688;33.130;-117.188;2023-12-14T01:01:01;99556.06;;;14.39;100.00
37848;BME280;23688;33.130;-117.188;2023-12-14T01:03:28;99575.91;;;14.64;100.00
37848;BME280;23688;33.130;-117.188;2023-12-14T01:05:54;99562.84;;;14.64;100.00
37848;BME280;23688;33.130;-117.188;2023-12-14T01:08:30;99579.78;;;14.80;100.00
37848;BME280;23688;33.130;-117.188;2023-12-14T01:10:56;99577.03;;;14.74;100.00
37848;BME280;23688;33.130;-117.188;2023-12-14T01:13:28;99584.25;;;14.83;100.00
37848;BME280;23688;33.130;-117.188;2023-12-14T01:15:54;99590.59;;;14.92;100.00
37848;BME280;23688;33.130;-117.188;2023-12-14T01:18:20;99579.00;;;14.83;100.00
37848;BME280;23688;33.130;-117.188;2023-12-14T01:20:47;99598.13;;;14.82;100.00
37848;BME280;23688;33.130;-117.188;2023-12-14T01:23:13;99594.53;;;14.76;100.00
37848;BME280;23688;33.130;-117.188;2023-12-14T01:25:39;99605.72;;;14.72;100.00
37848;BME280;23688;33.130;-117.188;2023-12-14T01:28:06;99603.91;;;14.70;100.00
37848;BME280;23688;33.130;-117.188;2023-12-14T01:30:32;99609.03;;;14.65;100.00
37848;BME280;23688;33.130;-117.188;2023-12-14T01:32:58;99618.53;;;14.62;100.00
37848;BME280;23688;33.130;-117.188;2023-12-14T01:35:25;99604.28;;;14.52;100.00
37848;BME280;23688;33.130;-117.188;2023-12-14T01:37:51;99628.59;;;14.49;100.00
37848;BME280;23688;33.130;-117.188;2023-12-14T01:40:19;99624.06;;;14.42;100.00
37848;BME280;23688;33.130;-117.188;2023-12-14T01:42:46;99622.06;;;14.33;100.00
37848;BME280;23688;33.130;-117.188;2023-12-14T01:45:12;99635.88;;;14.29;100.00
37848;BME280;23688;33.130;-117.188;2023-12-14T01:47:43;99631.34;;;14.24;100.00
37848;BME280;23688;33.130;-117.188;2023-12-14T01:50:11;99622.50;;;14.19;100.00
37848;BME280;23688;33.130;-117.188;2023-12-14T01:52:37;99630.31;;;14.17;100.00
37848;BME280;23688;33.130;-117.188;2023-12-14T01:55:04;99616.25;;;14.12;100.00
37848;BME280;23688;33.130;-117.188;2023-12-14T01:57:30;99633.00;;;14.20;100.00
37848;BME280;23688;33.130;-117.188;2023-12-14T01:59:56;99632.13;;;14.20;100.00
37848;BME280;23688;33.130;-117.188;2023-12-14T02:02:22;99631.34;;;14.22;100.00
37848;BME280;23688;33.130;-117.188;2023-12-14T02:04:49;99625.84;;;14.13;100.00
37848;BME280;23688;33.130;-117.188;2023-12-14T02:07:15;99634.47;;;14.10;100.00
37848;BME280;23688;33.130;-117.188;2023-12-14T02:09:41;99641.19;;;14.02;100.00
37848;BME280;23688;33.130;-117.188;2023-12-14T02:12:08;99644.19;;;13.86;100.00
37848;BME280;23688;33.130;-117.188;2023-12-14T02:14:34;99635.88;;;13.70;100.00
37848;BME280;23688;33.130;-117.188;2023-12-14T02:17:01;99636.72;;;13.69;100.00
37848;BME280;23688;33.130;-117.188;2023-12-14T02:19:27;99641.78;;;13.65;100.00
37848;BME280;23688;33.130;-117.188;2023-12-14T02:21:53;99631.75;;;13.50;100.00
37848;BME280;23688;33.130;-117.188;2023-12-14T02:24:20;99638.78;;;13.53;100.00
37848;BME280;23688;33.130;-117.188;2023-12-14T02:26:46;99644.84;;;13.52;100.00
37848;BME280;23688;33.130;-117.188;2023-12-14T02:29:13;99646.31;;;13.43;100.00
37848;BME280;23688;33.130;-117.188;2023-12-14T02:31:39;99635.59;;;13.34;100.00
37848;BME280;23688;33.130;-117.188;2023-12-14T02:34:06;99632.84;;;13.30;100.00
37848;BME280;23688;33.130;-117.188;2023-12-14T02:36:34;99641.25;;;13.22;100.00
37848;BME280;23688;33.130;-117.188;2023-12-14T02:39:01;99652.41;;;13.18;100.00
37848;BME280;23688;33.130;-117.188;2023-12-14T02:41:29;99660.88;;;13.11;100.00
37848;BME280;23688;33.130;-117.188;2023-12-14T02:43:55;99648.38;;;13.01;100.00
37848;BME280;23688;33.130;-117.188;2023-12-14T02:46:21;99660.44;;;12.99;100.00
37848;BME280;23688;33.130;-117.188;2023-12-14T02:48:48;99674.25;;;12.96;100.00
37848;BME280;23688;33.130;-117.188;2023-12-14T02:51:14;99658.16;;;12.82;100.00
37848;BME280;23688;33.130;-117.188;2023-12-14T02:53:41;99666.72;;;12.78;100.00
37848;BME280;23688;33.130;-117.188;2023-12-14T02:56:10;99667.41;;;12.74;100.00
37848;BME280;23688;33.130;-117.188;2023-12-14T02:58:37;99675.25;;;12.74;100.00
37848;BME280;23688;33.130;-117.188;2023-12-14T03:01:03;99664.44;;;12.63;100.00
37848;BME280;23688;33.130;-117.188;2023-12-14T03:03:33;99678.28;;;12.62;100.00
37848;BME280;23688;33.130;-117.188;2023-12-14T03:06:00;99688.06;;;12.68;100.00
37848;BME280;23688;33.130;-117.188;2023-12-14T03:08:26;99674.19;;;12.69;100.00
37848;BME280;23688;33.130;-117.188;2023-12-14T03:10:53;99680.88;;;12.62;100.00
37848;BME280;23688;33.130;-117.188;2023-12-14T03:13:19;99689.59;;;12.63;100.00
37848;BME280;23688;33.130;-117.188;2023-12-14T03:15:46;99682.41;;;12.56;100.00
37848;BME280;23688;33.130;-117.188;2023-12-14T03:18:14;99694.59;;;12.57;100.00
37848;BME280;23688;33.130;-117.188;2023-12-14T03:20:41;99704.41;;;12.64;100.00
37848;BME280;23688;33.130;-117.188;2023-12-14T03:23:07;99699.91;;;12.60;100.00
37848;BME280;23688;33.130;-117.188;2023-12-14T03:25:34;99707.50;;;12.54;100.00
37848;BME280;23688;33.130;-117.188;2023-12-14T03:28:00;99701.34;;;12.52;100.00
37848;BME280;23688;33.130;-117.188;2023-12-14T03:30:26;99695.91;;;12.46;100.00
37848;BME280;23688;33.130;-117.188;2023-12-14T03:32:52;99710.88;;;12.51;100.00
37848;BME280;23688;33.130;-117.188;2023-12-14T03:35:19;99713.53;;;12.53;100.00
37848;BME280;23688;33.130;-117.188;2023-12-14T03:37:45;99717.97;;;12.55;100.00
37848;BME280;23688;33.130;-117.188;2023-12-14T03:40:12;99693.00;;;12.38;100.00
37848;BME280;23688;33.130;-117.188;2023-12-14T03:42:38;99707.09;;;12.43;100.00
37848;BME280;23688;33.130;-117.188;2023-12-14T03:45:05;99721.13;;;12.47;100.00
37848;BME280;23688;33.130;-117.188;2023-12-14T03:47:31;99721.00;;;12.43;100.00
37848;BME280;23688;33.130;-117.188;2023-12-14T03:50:00;99717.50;;;12.43;100.00
37848;BME280;23688;33.130;-117.188;2023-12-14T03:52:26;99699.69;;;12.31;100.00
37848;BME280;23688;33.130;-117.188;2023-12-14T03:54:53;99723.38;;;12.37;100.00
37848;BME280;23688;33.130;-117.188;2023-12-14T03:57:20;99718.88;;;12.33;100.00
37848;BME280;23688;33.130;-117.188;2023-12-14T03:59:46;99727.63;;;12.35;100.00
37848;BME280;23688;33.130;-117.188;2023-12-14T04:02:12;99724.81;;;12.29;100.00
37848;BME280;23688;33.130;-117.188;2023-12-14T04:04:39;99728.47;;;12.34;100.00
37848;BME280;23688;33.130;-117.188;2023-12-14T04:07:06;99726.69;;;12.33;100.00
37848;BME280;23688;33.130;-117.188;2023-12-14T04:09:32;99730.06;;;12.31;100.00
37848;BME280;23688;33.130;-117.188;2023-12-14T04:11:59;99733.50;;;12.30;100.00
37848;BME280;23688;33.130;-117.188;2023-12-14T04:14:25;99738.59;;;12.27;100.00
37848;BME280;23688;33.130;-117.188;2023-12-14T04:16:51;99739.22;;;12.21;100.00
37848;BME280;23688;33.130;-117.188;2023-12-14T04:19:18;99738.13;;;12.14;100.00
37848;BME280;23688;33.130;-117.188;2023-12-14T04:21:44;99745.94;;;12.14;100.00
37848;BME280;23688;33.130;-117.188;2023-12-14T04:24:11;99737.94;;;12.10;100.00
37848;BME280;23688;33.130;-117.188;2023-12-14T04:26:38;99746.63;;;12.10;100.00
37848;BME280;23688;33.130;-117.188;2023-12-14T04:29:07;99733.38;;;12.04;100.00
37848;BME280;23688;33.130;-117.188;2023-12-14T04:31:35;99746.56;;;12.09;100.00
37848;BME280;23688;33.130;-117.188;2023-12-14T04:34:01;99759.59;;;12.09;100.00
37848;BME280;23688;33.130;-117.188;2023-12-14T04:36:27;99748.09;;;12.04;100.00
37848;BME280;23688;33.130;-117.188;2023-12-14T04:38:54;99753.19;;;12.01;100.00
37848;BME280;23688;33.130;-117.188;2023-12-14T04:41:20;99764.41;;;11.99;100.00
37848;BME280;23688;33.130;-117.188;2023-12-14T04:43:46;99753.97;;;11.98;100.00
37848;BME280;23688;33.130;-117.188;2023-12-14T04:46:13;99757.34;;;11.95;100.00
37848;BME280;23688;33.130;-117.188;2023-12-14T04:48:39;99758.22;;;11.96;100.00
37848;BME280;23688;33.130;-117.188;2023-12-14T04:51:07;99749.88;;;11.84;100.00
37848;BME280;23688;33.130;-117.188;2023-12-14T04:53:36;99763.84;;;11.86;100.00
37848;BME280;23688;33.130;-117.188;2023-12-14T04:56:04;99766.38;;;11.84;100.00
37848;BME280;23688;33.130;-117.188;2023-12-14T04:58:30;99758.38;;;11.79;100.00
37848;BME280;23688;33.130;-117.188;2023-12-14T05:00:56;99763.59;;;11.79;100.00
37848;BME280;23688;33.130;-117.188;2023-12-14T05:03:23;99773.19;;;11.81;100.00
37848;BME280;23688;33.130;-117.188;2023-12-14T05:05:50;99770.59;;;11.81;100.00
37848;BME280;23688;33.130;-117.188;2023-12-14T05:08:16;99766.94;;;11.77;100.00
37848;BME280;23688;33.130;-117.188;2023-12-14T05:10:43;99781.75;;;11.78;100.00
37848;BME280;23688;33.130;-117.188;2023-12-14T05:13:12;99782.44;;;11.74;100.00
37848;BME280;23688;33.130;-117.188;2023-12-14T05:15:39;99770.69;;;11.63;100.00
37848;BME280;23688;33.130;-117.188;2023-12-14T05:18:05;99771.53;;;11.62;100.00
37848;BME280;23688;33.130;-117.188;2023-12-14T05:20:31;99785.97;;;11.55;100.00
37848;BME280;23688;33.130;-117.188;2023-12-14T05:22:58;99782.50;;;11.54;100.00
37848;BME280;23688;33.130;-117.188;2023-12-14T05:25:24;99775.25;;;11.47;100.00
37848;BME280;23688;33.130;-117.188;2023-12-14T05:27:51;99777.66;;;11.43;100.00
37848;BME280;23688;33.130;-117.188;2023-12-14T05:30:19;99792.69;;;11.50;100.00
37848;BME280;23688;33.130;-117.188;2023-12-14T05:32:45;99802.16;;;11.48;100.00
37848;BME280;23688;33.130;-117.188;2023-12-14T05:35:12;99778.44;;;11.40;100.00
37848;BME280;23688;33.130;-117.188;2023-12-14T05:37:39;99804.63;;;11.45;100.00
37848;BME280;23688;33.130;-117.188;2023-12-14T05:40:06;99777.28;;;11.33;100.00
37848;BME280;23688;33.130;-117.188;2023-12-14T05:42:33;99797.31;;;11.36;100.00
37848;BME280;23688;33.130;-117.188;2023-12-14T05:44:59;99805.81;;;11.32;100.00
37848;BME280;23688;33.130;-117.188;2023-12-14T05:47:28;99800.22;;;11.23;100.00
37848;BME280;23688;33.130;-117.188;2023-12-14T05:49:56;99806.28;;;11.23;100.00
37848;BME280;23688;33.130;-117.188;2023-12-14T05:52:22;99811.44;;;11.22;100.00
37848;BME280;23688;33.130;-117.188;2023-12-14T05:54:49;99807.94;;;11.21;100.00
37848;BME280;23688;33.130;-117.188;2023-12-14T05:57:15;99799.81;;;11.13;100.00
37848;BME280;23688;33.130;-117.188;2023-12-14T05:59:41;99822.78;;;11.24;100.00
37848;BME280;23688;33.130;-117.188;2023-12-14T06:02:08;99818.19;;;11.18;100.00
37848;BME280;23688;33.130;-117.188;2023-12-14T06:04:34;99818.00;;;11.13;100.00
37848;BME280;23688;33.130;-117.188;2023-12-14T06:07:00;99809.09;;;11.08;100.00
37848;BME280;23688;33.130;-117.188;2023-12-14T06:09:27;99823.88;;;11.09;100.00
37848;BME280;23688;33.130;-117.188;2023-12-14T06:12:03;99816.81;;;11.07;100.00
37848;BME280;23688;33.130;-117.188;2023-12-14T06:14:30;99814.22;;;11.07;100.00
37848;BME280;23688;33.130;-117.188;2023-12-14T06:16:58;99805.34;;;11.02;100.00
37848;BME280;23688;33.130;-117.188;2023-12-14T06:19:25;99814.22;;;11.07;100.00
37848;BME280;23688;33.130;-117.188;2023-12-14T06:21:51;99815.16;;;11.07;100.00
37848;BME280;23688;33.130;-117.188;2023-12-14T06:24:18;99806.38;;;11.05;100.00
37848;BME280;23688;33.130;-117.188;2023-12-14T06:26:44;99810.53;;;11.02;100.00
37848;BME280;23688;33.130;-117.188;2023-12-14T06:29:12;99820.13;;;11.03;100.00
37848;BME280;23688;33.130;-117.188;2023-12-14T06:31:39;99822.56;;;11.00;100.00
37848;BME280;23688;33.130;-117.188;2023-12-14T06:34:06;99818.19;;;10.99;100.00
37848;BME280;23688;33.130;-117.188;2023-12-14T06:36:33;99821.56;;;10.96;100.00
37848;BME280;23688;33.130;-117.188;2023-12-14T06:39:00;99823.19;;;10.94;100.00
37848;BME280;23688;33.130;-117.188;2023-12-14T06:41:27;99788.31;;;10.69;100.00
37848;BME280;23688;33.130;-117.188;2023-12-14T06:43:57;99822.38;;;10.95;100.00
37848;BME280;23688;33.130;-117.188;2023-12-14T06:46:24;99829.22;;;10.93;100.00
37848;BME280;23688;33.130;-117.188;2023-12-14T06:48:50;99830.94;;;10.92;100.00
37848;BME280;23688;33.130;-117.188;2023-12-14T06:51:16;99824.56;;;10.86;100.00
37848;BME280;23688;33.130;-117.188;2023-12-14T06:53:43;99821.53;;;10.77;100.00
37848;BME280;23688;33.130;-117.188;2023-12-14T06:56:11;99835.56;;;10.80;100.00
37848;BME280;23688;33.130;-117.188;2023-12-14T06:58:42;99823.78;;;10.69;100.00
37848;BME280;23688;33.130;-117.188;2023-12-14T07:01:13;99844.78;;;10.74;100.00
37848;BME280;23688;33.130;-117.188;2023-12-14T07:03:41;99839.38;;;10.69;100.00
37848;BME280;23688;33.130;-117.188;2023-12-14T07:06:17;99809.72;;;10.46;100.00
37848;BME280;23688;33.130;-117.188;2023-12-14T07:08:44;99833.66;;;10.58;100.00
37848;BME280;23688;33.130;-117.188;2023-12-14T07:11:11;99844.28;;;10.63;100.00
37848;BME280;23688;33.130;-117.188;2023-12-14T07:13:38;99828.94;;;10.49;100.00
37848;BME280;23688;33.130;-117.188;2023-12-14T07:16:09;99836.00;;;10.52;100.00
37848;BME280;23688;33.130;-117.188;2023-12-14T07:18:40;99847.34;;;10.54;100.00
37848;BME280;23688;33.130;-117.188;2023-12-14T07:21:08;99848.88;;;10.50;100.00
37848;BME280;23688;33.130;-117.188;2023-12-14T07:23:35;99839.13;;;10.45;100.00
37848;BME280;23688;33.130;-117.188;2023-12-14T07:26:02;99846.16;;;10.47;100.00
37848;BME280;23688;33.130;-117.188;2023-12-14T07:28:28;99849.63;;;10.48;100.00
37848;BME280;23688;33.130;-117.188;2023-12-14T07:30:55;99852.09;;;10.45;100.00
37848;BME280;23688;33.130;-117.188;2023-12-14T07:33:21;99846.31;;;10.33;100.00
37848;BME280;23688;33.130;-117.188;2023-12-14T07:35:48;99855.47;;;10.26;100.00
37848;BME280;23688;33.130;-117.188;2023-12-14T07:38:15;99859.97;;;10.28;100.00
37848;BME280;23688;33.130;-117.188;2023-12-14T07:40:41;99873.72;;;10.27;100.00
37848;BME280;23688;33.130;-117.188;2023-12-14T07:43:08;99869.19;;;10.23;100.00
37848;BME280;23688;33.130;-117.188;2023-12-14T07:45:34;99864.47;;;10.15;100.00
37848;BME280;23688;33.130;-117.188;2023-12-14T07:48:01;99850.06;;;10.03;100.00
37848;BME280;23688;33.130;-117.188;2023-12-14T07:50:28;99859.25;;;9.97;100.00
37848;BME280;23688;33.130;-117.188;2023-12-14T07:52:54;99853.09;;;9.95;100.00
37848;BME280;23688;33.130;-117.188;2023-12-14T07:55:20;99853.16;;;9.96;100.00
37848;BME280;23688;33.130;-117.188;2023-12-14T07:57:47;99857.38;;;9.94;100.00
37848;BME280;23688;33.130;-117.188;2023-12-14T08:00:13;99858.97;;;9.91;100.00
37848;BME280;23688;33.130;-117.188;2023-12-14T08:02:40;99832.84;;;9.70;100.00
37848;BME280;23688;33.130;-117.188;2023-12-14T08:05:09;99850.25;;;9.72;100.00
37848;BME280;23688;33.130;-117.188;2023-12-14T08:07:36;99853.66;;;9.71;100.00
37848;BME280;23688;33.130;-117.188;2023-12-14T08:10:02;99860.47;;;9.69;100.00
37848;BME280;23688;33.130;-117.188;2023-12-14T08:12:29;99842.72;;;9.60;100.00
37848;BME280;23688;33.130;-117.188;2023-12-14T08:14:55;99854.31;;;9.67;100.00
37848;BME280;23688;33.130;-117.188;2023-12-14T08:17:21;99836.38;;;9.54;100.00
37848;BME280;23688;33.130;-117.188;2023-12-14T08:19:48;99855.53;;;9.57;100.00
37848;BME280;23688;33.130;-117.188;2023-12-14T08:22:14;99853.94;;;9.59;100.00
37848;BME280;23688;33.130;-117.188;2023-12-14T08:24:41;99839.50;;;9.48;100.00
37848;BME280;23688;33.130;-117.188;2023-12-14T08:27:08;99861.47;;;9.55;100.00
37848;BME280;23688;33.130;-117.188;2023-12-14T08:29:34;99860.59;;;9.54;100.00
37848;BME280;23688;33.130;-117.188;2023-12-14T08:32:01;99845.38;;;9.44;100.00
37848;BME280;23688;33.130;-117.188;2023-12-14T08:34:28;99861.16;;;9.49;100.00
37848;BME280;23688;33.130;-117.188;2023-12-14T08:36:54;99865.38;;;9.47;100.00
37848;BME280;23688;33.130;-117.188;2023-12-14T08:39:21;99870.63;;;9.48;100.00
37848;BME280;23688;33.130;-117.188;2023-12-14T08:41:47;99878.88;;;9.41;100.00
37848;BME280;23688;33.130;-117.188;2023-12-14T08:44:15;99880.03;;;9.30;100.00
37848;BME280;23688;33.130;-117.188;2023-12-14T08:46:46;99880.78;;;9.27;100.00
37848;BME280;23688;33.130;-117.188;2023-12-14T08:49:13;99863.75;;;9.16;100.00
37848;BME280;23688;33.130;-117.188;2023-12-14T08:51:41;99868.31;;;9.20;100.00
37848;BME280;23688;33.130;-117.188;2023-12-14T08:54:07;99875.94;;;9.17;100.00
37848;BME280;23688;33.130;-117.188;2023-12-14T08:56:35;99881.81;;;9.14;100.00
37848;BME280;23688;33.130;-117.188;2023-12-14T08:59:01;99864.97;;;9.06;100.00
37848;BME280;23688;33.130;-117.188;2023-12-14T09:01:29;99880.66;;;9.09;100.00
37848;BME280;23688;33.130;-117.188;2023-12-14T09:03:56;99885.63;;;9.05;100.00
37848;BME280;23688;33.130;-117.188;2023-12-14T09:06:22;99886.28;;;9.00;100.00
37848;BME280;23688;33.130;-117.188;2023-12-14T09:08:48;99883.28;;;8.93;100.00
37848;BME280;23688;33.130;-117.188;2023-12-14T09:11:15;99886.34;;;8.86;100.00
37848;BME280;23688;33.130;-117.188;2023-12-14T09:13:42;99873.25;;;8.68;100.00
37848;BME280;23688;33.130;-117.188;2023-12-14T09:16:09;99895.31;;;8.76;100.00
37848;BME280;23688;33.130;-117.188;2023-12-14T09:18:36;99891.88;;;8.77;100.00
37848;BME280;23688;33.130;-117.188;2023-12-14T09:21:02;99891.88;;;8.77;100.00
37848;BME280;23688;33.130;-117.188;2023-12-14T09:23:30;99882.00;;;8.70;100.00
37848;BME280;23688;33.130;-117.188;2023-12-14T09:25:56;99884.13;;;8.77;100.00
37848;BME280;23688;33.130;-117.188;2023-12-14T09:28:25;99883.50;;;8.81;100.00
37848;BME280;23688;33.130;-117.188;2023-12-14T09:30:52;99884.47;;;8.83;100.00
37848;BME280;23688;33.130;-117.188;2023-12-14T09:33:19;99875.38;;;8.75;100.00
37848;BME280;23688;33.130;-117.188;2023-12-14T09:35:45;99886.09;;;8.81;100.00
37848;BME280;23688;33.130;-117.188;2023-12-14T09:38:12;99884.28;;;8.80;100.00
37848;BME280;23688;33.130;-117.188;2023-12-14T09:40:43;99879.19;;;8.82;100.00
37848;BME280;23688;33.130;-117.188;2023-12-14T09:43:10;99883.56;;;8.83;100.00
37848;BME280;23688;33.130;-117.188;2023-12-14T09:45:39;99894.16;;;8.87;100.00
37848;BME280;23688;33.130;-117.188;2023-12-14T09:48:11;99874.75;;;8.79;100.00
37848;BME280;23688;33.130;-117.188;2023-12-14T09:50:39;99872.00;;;8.76;100.00
37848;BME280;23688;33.130;-117.188;2023-12-14T09:53:08;99889.56;;;8.82;100.00
37848;BME280;23688;33.130;-117.188;2023-12-14T09:55:35;99878.31;;;8.81;100.00
37848;BME280;23688;33.130;-117.188;2023-12-14T09:58:01;99888.56;;;8.79;100.00
37848;BME280;23688;33.130;-117.188;2023-12-14T10:00:39;99878.53;;;8.69;100.00
37848;BME280;23688;33.130;-117.188;2023-12-14T10:03:23;99884.44;;;8.67;100.00
37848;BME280;23688;33.130;-117.188;2023-12-14T10:05:53;99883.44;;;8.65;100.00
37848;BME280;23688;33.130;-117.188;2023-12-14T10:08:19;99889.09;;;8.57;100.00
37848;BME280;23688;33.130;-117.188;2023-12-14T10:10:50;99893.72;;;8.63;100.00
37848;BME280;23688;33.130;-117.188;2023-12-14T10:13:19;99884.81;;;8.58;100.00
37848;BME280;23688;33.130;-117.188;2023-12-14T10:15:47;99902.28;;;8.62;100.00
37848;BME280;23688;33.130;-117.188;2023-12-14T10:18:24;99875.63;;;8.48;100.00
37848;BME280;23688;33.130;-117.188;2023-12-14T10:20:51;99893.28;;;8.55;100.00
37848;BME280;23688;33.130;-117.188;2023-12-14T10:23:17;99893.03;;;8.51;100.00
37848;BME280;23688;33.130;-117.188;2023-12-14T10:25:44;99903.47;;;8.52;100.00
37848;BME280;23688;33.130;-117.188;2023-12-14T10:28:15;99900.72;;;8.49;100.00
37848;BME280;23688;33.130;-117.188;2023-12-14T10:30:43;99892.31;;;8.39;100.00
37848;BME280;23688;33.130;-117.188;2023-12-14T10:33:10;99898.31;;;8.38;100.00
37848;BME280;23688;33.130;-117.188;2023-12-14T10:35:36;99894.66;;;8.34;100.00
37848;BME280;23688;33.130;-117.188;2023-12-14T10:38:04;99894.84;;;8.37;100.00
37848;BME280;23688;33.130;-117.188;2023-12-14T10:40:32;99870.03;;;8.26;100.00
37848;BME280;23688;33.130;-117.188;2023-12-14T10:43:00;99894.72;;;8.35;100.00
37848;BME280;23688;33.130;-117.188;2023-12-14T10:45:34;99889.03;;;8.26;100.00
37848;BME280;23688;33.130;-117.188;2023-12-14T10:48:01;99894.66;;;8.34;100.00
37848;BME280;23688;33.130;-117.188;2023-12-14T10:50:30;99885.56;;;8.41;100.00
37848;BME280;23688;33.130;-117.188;2023-12-14T10:52:57;99888.50;;;8.47;100.00
37848;BME280;23688;33.130;-117.188;2023-12-14T10:55:40;99890.28;;;8.48;100.00
37848;BME280;23688;33.130;-117.188;2023-12-14T10:58:08;99881.22;;;8.40;100.00
37848;BME280;23688;33.130;-117.188;2023-12-14T11:00:36;99886.00;;;8.48;100.00
37848;BME280;23688;33.130;-117.188;2023-12-14T11:03:04;99889.56;;;8.50;100.00
37848;BME280;23688;33.130;-117.188;2023-12-14T11:05:33;99886.97;;;8.50;100.00
37848;BME280;23688;33.130;-117.188;2023-12-14T11:08:03;99873.59;;;8.43;100.00
37848;BME280;23688;33.130;-117.188;2023-12-14T11:10:53;99882.94;;;8.55;100.00
37848;BME280;23688;33.130;-117.188;2023-12-14T11:13:23;99889.25;;;8.61;100.00
37848;BME280;23688;33.130;-117.188;2023-12-14T11:15:52;99877.28;;;8.63;100.00
37848;BME280;23688;33.130;-117.188;2023-12-14T11:23:15;99877.28;;;8.63;100.00
37848;BME280;23688;33.130;-117.188;2023-12-14T11:25:49;99865.94;;;8.44;100.00
37848;BME280;23688;33.130;-117.188;2023-12-14T11:28:15;99862.19;;;8.39;100.00
37848;BME280;23688;33.130;-117.188;2023-12-14T11:30:44;99876.81;;;8.53;100.00
37848;BME280;23688;33.130;-117.188;2023-12-14T11:33:13;99877.50;;;8.51;100.00
37848;BME280;23688;33.130;-117.188;2023-12-14T11:35:41;99873.50;;;8.56;100.00
37848;BME280;23688;33.130;-117.188;2023-12-14T11:38:07;99874.13;;;8.52;100.00
37848;BME280;23688;33.130;-117.188;2023-12-14T11:40:40;99885.38;;;8.52;100.00
37848;BME280;23688;33.130;-117.188;2023-12-14T11:43:07;99878.22;;;8.48;100.00
37848;BME280;23688;33.130;-117.188;2023-12-14T11:45:40;99869.59;;;8.33;100.00
37848;BME280;23688;33.130;-117.188;2023-12-14T11:48:09;99875.56;;;8.32;100.00
37848;BME280;23688;33.130;-117.188;2023-12-14T11:50:38;99882.00;;;8.24;100.00
37848;BME280;23688;33.130;-117.188;2023-12-14T11:53:05;99883.78;;;8.25;100.00
37848;BME280;23688;33.130;-117.188;2023-12-14T11:55:38;99891.81;;;8.29;100.00
37848;BME280;23688;33.130;-117.188;2023-12-14T11:58:05;99900.31;;;8.27;100.00
37848;BME280;23688;33.130;-117.188;2023-12-14T12:00:32;99896.72;;;8.25;100.00
37848;BME280;23688;33.130;-117.188;2023-12-14T12:03:15;99901.25;;;8.14;100.00
37848;BME280;23688;33.130;-117.188;2023-12-14T12:05:45;99903.16;;;8.02;100.00
37848;BME280;23688;33.130;-117.188;2023-12-14T12:08:12;99909.47;;;8.07;100.00
37848;BME280;23688;33.130;-117.188;2023-12-14T12:10:40;99908.59;;;8.06;100.00
37848;BME280;23688;33.130;-117.188;2023-12-14T12:13:12;99899.22;;;8.08;100.00
37848;BME280;23688;33.130;-117.188;2023-12-14T12:15:39;99901.19;;;8.12;100.00
37848;BME280;23688;33.130;-117.188;2023-12-14T12:18:23;99901.19;;;8.12;100.00
37848;BME280;23688;33.130;-117.188;2023-12-14T12:20:49;99900.38;;;8.13;100.00
37848;BME280;23688;33.130;-117.188;2023-12-14T12:23:16;99911.53;;;8.12;100.00
37848;BME280;23688;33.130;-117.188;2023-12-14T12:25:42;99889.34;;;8.01;100.00
37848;BME280;23688;33.130;-117.188;2023-12-14T12:28:08;99889.94;;;7.97;100.00
37848;BME280;23688;33.130;-117.188;2023-12-14T12:30:34;99902.00;;;7.97;100.00